sensor_id;sensor_type;location;lat;lon;timestamp;P1;durP1;ratioP1;P2;durP2;ratioP2
78838;SDS011;68405;47.190;27.558;2023-07-09T00:02:24;7.50;;;2.20;;
78838;SDS011;68405;47.190;27.558;2023-07-09T00:04:57;3.00;;;2.40;;
78838;SDS011;68405;47.190;27.558;2023-07-09T00:07:30;4.50;;;2.20;;
78838;SDS011;68405;47.190;27.558;2023-07-09T00:10:03;2.80;;;2.20;;
78838;SDS011;68405;47.190;27.558;2023-07-09T00:12:35;6.70;;;2.80;;
78838;SDS011;68405;47.190;27.558;2023-07-09T00:15:08;3.50;;;2.00;;
78838;SDS011;68405;47.190;27.558;2023-07-09T00:17:40;4.30;;;2.40;;
78838;SDS011;68405;47.190;27.558;2023-07-09T00:20:13;3.50;;;1.90;;
78838;SDS011;68405;47.190;27.558;2023-07-09T00:22:47;5.10;;;2.50;;
78838;SDS011;68405;47.190;27.558;2023-07-09T00:25:21;3.70;;;2.50;;
78838;SDS011;68405;47.190;27.558;2023-07-09T00:27:53;4.20;;;2.30;;
78838;SDS011;68405;47.190;27.558;2023-07-09T00:30:25;3.70;;;2.20;;
78838;SDS011;68405;47.190;27.558;2023-07-09T00:32:56;5.10;;;2.40;;
78838;SDS011;68405;47.190;27.558;2023-07-09T00:35:29;4.10;;;2.20;;
78838;SDS011;68405;47.190;27.558;2023-07-09T00:38:01;3.40;;;2.20;;
78838;SDS011;68405;47.190;27.558;2023-07-09T00:40:33;3.30;;;2.50;;
78838;SDS011;68405;47.190;27.558;2023-07-09T00:43:07;3.50;;;2.30;;
78838;SDS011;68405;47.190;27.558;2023-07-09T00:46:06;4.20;;;2.00;;
78838;SDS011;68405;47.190;27.558;2023-07-09T00:48:44;4.80;;;2.40;;
78838;SDS011;68405;47.190;27.558;2023-07-09T00:51:20;5.50;;;2.40;;
78838;SDS011;68405;47.190;27.558;2023-07-09T00:53:55;3.80;;;2.70;;
78838;SDS011;68405;47.190;27.558;2023-07-09T00:56:28;4.00;;;2.60;;
78838;SDS011;68405;47.190;27.558;2023-07-09T00:59:08;3.60;;;2.00;;
78838;SDS011;68405;47.190;27.558;2023-07-09T01:01:45;5.90;;;2.80;;
78838;SDS011;68405;47.190;27.558;2023-07-09T01:04:18;4.10;;;2.70;;
78838;SDS011;68405;47.190;27.558;2023-07-09T01:06:52;3.90;;;2.70;;
78838;SDS011;68405;47.190;27.558;2023-07-09T01:09:24;4.10;;;2.30;;
78838;SDS011;68405;47.190;27.558;2023-07-09T01:11:56;3.90;;;2.50;;
78838;SDS011;68405;47.190;27.558;2023-07-09T01:14:30;7.20;;;2.80;;
78838;SDS011;68405;47.190;27.558;2023-07-09T01:19:38;4.80;;;2.20;;
78838;SDS011;68405;47.190;27.558;2023-07-09T01:22:13;5.40;;;2.30;;
78838;SDS011;68405;47.190;27.558;2023-07-09T01:27:23;6.70;;;2.60;;
78838;SDS011;68405;47.190;27.558;2023-07-09T01:29:56;4.20;;;2.70;;
78838;SDS011;68405;47.190;27.558;2023-07-09T01:32:29;3.90;;;2.40;;
78838;SDS011;68405;47.190;27.558;2023-07-09T01:35:02;5.50;;;2.80;;
78838;SDS011;68405;47.190;27.558;2023-07-09T01:37:36;5.70;;;3.00;;
78838;SDS011;68405;47.190;27.558;2023-07-09T01:40:09;3.00;;;2.60;;
78838;SDS011;68405;47.190;27.558;2023-07-09T01:42:43;5.00;;;3.20;;
78838;SDS011;68405;47.190;27.558;2023-07-09T01:45:15;5.10;;;2.70;;
78838;SDS011;68405;47.190;27.558;2023-07-09T01:47:48;4.30;;;2.60;;
78838;SDS011;68405;47.190;27.558;2023-07-09T01:50:21;4.10;;;2.80;;
78838;SDS011;68405;47.190;27.558;2023-07-09T01:52:55;5.20;;;3.30;;
78838;SDS011;68405;47.190;27.558;2023-07-09T01:55:28;3.00;;;2.40;;
78838;SDS011;68405;47.190;27.558;2023-07-09T01:57:59;3.70;;;2.80;;
78838;SDS011;68405;47.190;27.558;2023-07-09T02:00:33;4.60;;;2.90;;
78838;SDS011;68405;47.190;27.558;2023-07-09T02:03:05;3.90;;;2.80;;
78838;SDS011;68405;47.190;27.558;2023-07-09T02:05:37;4.50;;;2.50;;
78838;SDS011;68405;47.190;27.558;2023-07-09T02:08:10;4.70;;;2.60;;
78838;SDS011;68405;47.190;27.558;2023-07-09T02:10:42;4.90;;;2.80;;
78838;SDS011;68405;47.190;27.558;2023-07-09T02:13:14;3.90;;;2.90;;
78838;SDS011;68405;47.190;27.558;2023-07-09T02:15:46;5.20;;;3.30;;
78838;SDS011;68405;47.190;27.558;2023-07-09T02:18:19;5.60;;;2.80;;
78838;SDS011;68405;47.190;27.558;2023-07-09T02:20:51;6.20;;;3.20;;
78838;SDS011;68405;47.190;27.558;2023-07-09T02:23:23;7.30;;;2.90;;
78838;SDS011;68405;47.190;27.558;2023-07-09T02:25:57;4.60;;;3.20;;
78838;SDS011;68405;47.190;27.558;2023-07-09T02:28:29;4.20;;;3.00;;
78838;SDS011;68405;47.190;27.558;2023-07-09T02:31:00;4.30;;;2.70;;
78838;SDS011;68405;47.190;27.558;2023-07-09T02:33:32;4.10;;;2.60;;
78838;SDS011;68405;47.190;27.558;2023-07-09T02:36:05;3.50;;;2.90;;
78838;SDS011;68405;47.190;27.558;2023-07-09T02:38:36;3.50;;;2.50;;
78838;SDS011;68405;47.190;27.558;2023-07-09T02:41:08;4.30;;;2.50;;
78838;SDS011;68405;47.190;27.558;2023-07-09T02:43:39;5.20;;;3.20;;
78838;SDS011;68405;47.190;27.558;2023-07-09T02:46:11;5.70;;;3.00;;
78838;SDS011;68405;47.190;27.558;2023-07-09T02:48:43;3.50;;;2.80;;
78838;SDS011;68405;47.190;27.558;2023-07-09T02:51:14;5.60;;;2.80;;
78838;SDS011;68405;47.190;27.558;2023-07-09T02:53:46;4.60;;;2.70;;
78838;SDS011;68405;47.190;27.558;2023-07-09T02:56:21;5.50;;;3.20;;
78838;SDS011;68405;47.190;27.558;2023-07-09T02:58:53;2.90;;;2.20;;
78838;SDS011;68405;47.190;27.558;2023-07-09T03:01:25;3.80;;;2.40;;
78838;SDS011;68405;47.190;27.558;2023-07-09T03:03:57;5.70;;;2.70;;
78838;SDS011;68405;47.190;27.558;2023-07-09T03:06:30;3.20;;;2.30;;
78838;SDS011;68405;47.190;27.558;2023-07-09T03:09:03;3.30;;;2.50;;
78838;SDS011;68405;47.190;27.558;2023-07-09T03:11:36;5.70;;;2.80;;
78838;SDS011;68405;47.190;27.558;2023-07-09T03:14:08;3.50;;;2.40;;
78838;SDS011;68405;47.190;27.558;2023-07-09T03:16:40;2.10;;;1.90;;
78838;SDS011;68405;47.190;27.558;2023-07-09T03:19:12;3.50;;;2.80;;
78838;SDS011;68405;47.190;27.558;2023-07-09T03:21:44;3.30;;;2.30;;
78838;SDS011;68405;47.190;27.558;2023-07-09T03:24:15;4.40;;;2.80;;
78838;SDS011;68405;47.190;27.558;2023-07-09T03:26:47;3.30;;;2.40;;
78838;SDS011;68405;47.190;27.558;2023-07-09T03:29:19;4.20;;;2.30;;
78838;SDS011;68405;47.190;27.558;2023-07-09T03:31:50;3.80;;;2.70;;
78838;SDS011;68405;47.190;27.558;2023-07-09T03:34:22;4.20;;;2.30;;
78838;SDS011;68405;47.190;27.558;2023-07-09T03:36:54;5.10;;;2.70;;
78838;SDS011;68405;47.190;27.558;2023-07-09T03:39:25;3.30;;;2.10;;
78838;SDS011;68405;47.190;27.558;2023-07-09T03:41:57;3.70;;;2.60;;
78838;SDS011;68405;47.190;27.558;2023-07-09T03:44:29;4.50;;;2.50;;
78838;SDS011;68405;47.190;27.558;2023-07-09T03:47:00;4.70;;;2.70;;
78838;SDS011;68405;47.190;27.558;2023-07-09T03:49:33;3.80;;;2.60;;
78838;SDS011;68405;47.190;27.558;2023-07-09T03:52:05;5.30;;;3.20;;
78838;SDS011;68405;47.190;27.558;2023-07-09T03:54:37;4.20;;;2.40;;
78838;SDS011;68405;47.190;27.558;2023-07-09T03:57:09;4.20;;;2.60;;
78838;SDS011;68405;47.190;27.558;2023-07-09T03:59:41;4.10;;;2.70;;
78838;SDS011;68405;47.190;27.558;2023-07-09T04:02:13;4.30;;;2.50;;
78838;SDS011;68405;47.190;27.558;2023-07-09T04:04:44;4.00;;;2.10;;
78838;SDS011;68405;47.190;27.558;2023-07-09T04:07:17;3.50;;;2.30;;
78838;SDS011;68405;47.190;27.558;2023-07-09T04:09:49;4.10;;;2.20;;
78838;SDS011;68405;47.190;27.558;2023-07-09T04:12:20;3.20;;;2.00;;
78838;SDS011;68405;47.190;27.558;2023-07-09T04:14:52;3.70;;;1.90;;
78838;SDS011;68405;47.190;27.558;2023-07-09T04:17:24;4.40;;;2.70;;
78838;SDS011;68405;47.190;27.558;2023-07-09T04:19:56;3.90;;;2.30;;
78838;SDS011;68405;47.190;27.558;2023-07-09T04:22:27;4.30;;;2.30;;
78838;SDS011;68405;47.190;27.558;2023-07-09T04:24:59;3.90;;;1.90;;
78838;SDS011;68405;47.190;27.558;2023-07-09T04:27:32;2.90;;;1.90;;
78838;SDS011;68405;47.190;27.558;2023-07-09T04:30:04;6.60;;;2.00;;
78838;SDS011;68405;47.190;27.558;2023-07-09T04:32:39;3.10;;;1.90;;
78838;SDS011;68405;47.190;27.558;2023-07-09T04:35:13;3.40;;;2.00;;
78838;SDS011;68405;47.190;27.558;2023-07-09T04:37:44;3.30;;;2.00;;
78838;SDS011;68405;47.190;27.558;2023-07-09T04:40:17;2.80;;;1.80;;
78838;SDS011;68405;47.190;27.558;2023-07-09T04:45:20;3.50;;;1.90;;
78838;SDS011;68405;47.190;27.558;2023-07-09T04:47:51;3.30;;;2.10;;
78838;SDS011;68405;47.190;27.558;2023-07-09T04:50:23;3.30;;;2.10;;
78838;SDS011;68405;47.190;27.558;2023-07-09T04:52:55;3.00;;;1.90;;
78838;SDS011;68405;47.190;27.558;2023-07-09T04:55:28;2.60;;;2.20;;
78838;SDS011;68405;47.190;27.558;2023-07-09T04:58:00;2.80;;;1.80;;
78838;SDS011;68405;47.190;27.558;2023-07-09T05:00:31;4.90;;;1.90;;
78838;SDS011;68405;47.190;27.558;2023-07-09T05:03:03;4.60;;;2.10;;
78838;SDS011;68405;47.190;27.558;2023-07-09T05:05:35;3.60;;;1.70;;
78838;SDS011;68405;47.190;27.558;2023-07-09T05:08:14;5.20;;;2.10;;
78838;SDS011;68405;47.190;27.558;2023-07-09T05:10:46;2.90;;;2.20;;
78838;SDS011;68405;47.190;27.558;2023-07-09T05:13:21;4.10;;;2.10;;
78838;SDS011;68405;47.190;27.558;2023-07-09T05:15:53;3.90;;;2.00;;
78838;SDS011;68405;47.190;27.558;2023-07-09T05:18:24;4.70;;;2.00;;
78838;SDS011;68405;47.190;27.558;2023-07-09T05:20:56;3.60;;;2.00;;
78838;SDS011;68405;47.190;27.558;2023-07-09T05:23:27;3.80;;;2.20;;
78838;SDS011;68405;47.190;27.558;2023-07-09T05:25:59;2.30;;;1.90;;
78838;SDS011;68405;47.190;27.558;2023-07-09T05:31:02;3.30;;;2.20;;
78838;SDS011;68405;47.190;27.558;2023-07-09T05:33:34;3.80;;;2.40;;
78838;SDS011;68405;47.190;27.558;2023-07-09T05:36:06;5.60;;;2.00;;
78838;SDS011;68405;47.190;27.558;2023-07-09T05:38:42;4.00;;;1.90;;
78838;SDS011;68405;47.190;27.558;2023-07-09T05:43:45;2.30;;;1.80;;
78838;SDS011;68405;47.190;27.558;2023-07-09T05:46:21;2.80;;;1.80;;
78838;SDS011;68405;47.190;27.558;2023-07-09T05:51:23;2.10;;;1.90;;
78838;SDS011;68405;47.190;27.558;2023-07-09T05:53:55;5.00;;;2.10;;
78838;SDS011;68405;47.190;27.558;2023-07-09T05:56:26;3.50;;;1.70;;
78838;SDS011;68405;47.190;27.558;2023-07-09T05:58:59;5.00;;;1.90;;
78838;SDS011;68405;47.190;27.558;2023-07-09T06:01:30;3.10;;;1.70;;
78838;SDS011;68405;47.190;27.558;2023-07-09T06:04:03;4.60;;;2.20;;
78838;SDS011;68405;47.190;27.558;2023-07-09T06:06:38;3.90;;;2.10;;
78838;SDS011;68405;47.190;27.558;2023-07-09T06:09:10;2.70;;;1.90;;
78838;SDS011;68405;47.190;27.558;2023-07-09T06:11:43;3.80;;;2.00;;
78838;SDS011;68405;47.190;27.558;2023-07-09T06:14:15;3.00;;;2.10;;
78838;SDS011;68405;47.190;27.558;2023-07-09T06:16:47;4.90;;;1.90;;
78838;SDS011;68405;47.190;27.558;2023-07-09T06:19:19;2.70;;;1.60;;
78838;SDS011;68405;47.190;27.558;2023-07-09T06:21:51;2.90;;;1.90;;
78838;SDS011;68405;47.190;27.558;2023-07-09T06:24:24;3.30;;;1.90;;
78838;SDS011;68405;47.190;27.558;2023-07-09T06:26:56;1.90;;;1.70;;
78838;SDS011;68405;47.190;27.558;2023-07-09T06:29:28;1.80;;;1.70;;
78838;SDS011;68405;47.190;27.558;2023-07-09T06:32:00;2.00;;;1.80;;
78838;SDS011;68405;47.190;27.558;2023-07-09T06:34:32;1.90;;;1.50;;
78838;SDS011;68405;47.190;27.558;2023-07-09T06:37:04;3.40;;;1.70;;
78838;SDS011;68405;47.190;27.558;2023-07-09T06:42:06;1.80;;;1.50;;
78838;SDS011;68405;47.190;27.558;2023-07-09T06:47:08;3.70;;;1.80;;
78838;SDS011;68405;47.190;27.558;2023-07-09T06:49:40;2.70;;;2.10;;
78838;SDS011;68405;47.190;27.558;2023-07-09T06:52:12;4.00;;;1.90;;
78838;SDS011;68405;47.190;27.558;2023-07-09T06:54:44;5.90;;;2.40;;
78838;SDS011;68405;47.190;27.558;2023-07-09T06:57:17;2.80;;;1.80;;
78838;SDS011;68405;47.190;27.558;2023-07-09T06:59:49;3.60;;;1.70;;
78838;SDS011;68405;47.190;27.558;2023-07-09T07:02:21;3.30;;;1.80;;
78838;SDS011;68405;47.190;27.558;2023-07-09T07:04:52;3.00;;;1.70;;
78838;SDS011;68405;47.190;27.558;2023-07-09T07:07:24;2.10;;;1.80;;
78838;SDS011;68405;47.190;27.558;2023-07-09T07:09:56;4.20;;;2.10;;
78838;SDS011;68405;47.190;27.558;2023-07-09T07:12:28;1.90;;;1.70;;
78838;SDS011;68405;47.190;27.558;2023-07-09T07:15:11;3.90;;;1.80;;
78838;SDS011;68405;47.190;27.558;2023-07-09T07:17:43;3.30;;;1.70;;
78838;SDS011;68405;47.190;27.558;2023-07-09T07:20:15;3.60;;;2.00;;
78838;SDS011;68405;47.190;27.558;2023-07-09T07:22:48;1.90;;;1.80;;
78838;SDS011;68405;47.190;27.558;2023-07-09T07:25:20;3.10;;;1.40;;
78838;SDS011;68405;47.190;27.558;2023-07-09T07:27:52;2.60;;;1.70;;
78838;SDS011;68405;47.190;27.558;2023-07-09T07:30:24;2.50;;;1.80;;
78838;SDS011;68405;47.190;27.558;2023-07-09T07:32:55;3.40;;;1.80;;
78838;SDS011;68405;47.190;27.558;2023-07-09T07:35:27;4.40;;;1.60;;
78838;SDS011;68405;47.190;27.558;2023-07-09T07:37:59;3.80;;;1.80;;
78838;SDS011;68405;47.190;27.558;2023-07-09T07:40:31;2.20;;;1.80;;
78838;SDS011;68405;47.190;27.558;2023-07-09T07:43:03;3.80;;;2.00;;
78838;SDS011;68405;47.190;27.558;2023-07-09T07:45:35;2.60;;;2.00;;
78838;SDS011;68405;47.190;27.558;2023-07-09T07:48:09;3.00;;;1.90;;
78838;SDS011;68405;47.190;27.558;2023-07-09T07:50:42;2.10;;;1.70;;
78838;SDS011;68405;47.190;27.558;2023-07-09T07:53:16;2.50;;;1.50;;
78838;SDS011;68405;47.190;27.558;2023-07-09T07:55:48;2.40;;;1.80;;
78838;SDS011;68405;47.190;27.558;2023-07-09T07:58:20;2.10;;;1.70;;
78838;SDS011;68405;47.190;27.558;2023-07-09T08:00:56;1.80;;;1.50;;
78838;SDS011;68405;47.190;27.558;2023-07-09T08:03:27;2.60;;;1.80;;
78838;SDS011;68405;47.190;27.558;2023-07-09T08:05:59;3.10;;;1.70;;
78838;SDS011;68405;47.190;27.558;2023-07-09T08:08:31;2.60;;;1.70;;
78838;SDS011;68405;47.190;27.558;2023-07-09T08:11:03;2.40;;;1.60;;
78838;SDS011;68405;47.190;27.558;2023-07-09T08:13:36;4.20;;;1.80;;
78838;SDS011;68405;47.190;27.558;2023-07-09T08:16:09;4.00;;;1.90;;
78838;SDS011;68405;47.190;27.558;2023-07-09T08:18:41;3.10;;;1.70;;
78838;SDS011;68405;47.190;27.558;2023-07-09T08:21:13;3.60;;;1.70;;
78838;SDS011;68405;47.190;27.558;2023-07-09T08:23:45;3.30;;;1.70;;
78838;SDS011;68405;47.190;27.558;2023-07-09T08:26:17;2.50;;;1.60;;
78838;SDS011;68405;47.190;27.558;2023-07-09T08:28:49;6.30;;;1.90;;
78838;SDS011;68405;47.190;27.558;2023-07-09T08:31:20;3.90;;;2.00;;
78838;SDS011;68405;47.190;27.558;2023-07-09T08:33:52;2.00;;;1.70;;
78838;SDS011;68405;47.190;27.558;2023-07-09T08:36:24;3.60;;;2.00;;
78838;SDS011;68405;47.190;27.558;2023-07-09T08:38:57;3.10;;;1.70;;
78838;SDS011;68405;47.190;27.558;2023-07-09T08:41:35;3.10;;;1.80;;
78838;SDS011;68405;47.190;27.558;2023-07-09T08:44:14;2.20;;;1.70;;
78838;SDS011;68405;47.190;27.558;2023-07-09T08:47:02;3.30;;;2.20;;
78838;SDS011;68405;47.190;27.558;2023-07-09T08:49:43;4.20;;;1.80;;
78838;SDS011;68405;47.190;27.558;2023-07-09T08:52:24;4.10;;;2.00;;
78838;SDS011;68405;47.190;27.558;2023-07-09T08:55:01;2.90;;;1.60;;
78838;SDS011;68405;47.190;27.558;2023-07-09T08:57:34;2.60;;;1.80;;
78838;SDS011;68405;47.190;27.558;2023-07-09T09:00:13;3.00;;;1.90;;
78838;SDS011;68405;47.190;27.558;2023-07-09T09:02:48;5.00;;;1.90;;
78838;SDS011;68405;47.190;27.558;2023-07-09T09:07:57;6.00;;;2.30;;
78838;SDS011;68405;47.190;27.558;2023-07-09T09:10:33;4.00;;;1.70;;
78838;SDS011;68405;47.190;27.558;2023-07-09T09:13:12;5.40;;;2.00;;
78838;SDS011;68405;47.190;27.558;2023-07-09T09:15:45;3.10;;;2.00;;
78838;SDS011;68405;47.190;27.558;2023-07-09T09:18:22;2.60;;;1.90;;
78838;SDS011;68405;47.190;27.558;2023-07-09T09:20:57;4.20;;;2.00;;
78838;SDS011;68405;47.190;27.558;2023-07-09T09:23:38;3.00;;;2.00;;
78838;SDS011;68405;47.190;27.558;2023-07-09T09:26:23;3.10;;;2.00;;
78838;SDS011;68405;47.190;27.558;2023-07-09T09:28:58;5.00;;;2.20;;
78838;SDS011;68405;47.190;27.558;2023-07-09T09:31:30;3.10;;;2.00;;
78838;SDS011;68405;47.190;27.558;2023-07-09T09:34:03;4.30;;;2.00;;
78838;SDS011;68405;47.190;27.558;2023-07-09T09:36:36;3.70;;;1.80;;
78838;SDS011;68405;47.190;27.558;2023-07-09T09:39:09;5.70;;;2.30;;
78838;SDS011;68405;47.190;27.558;2023-07-09T09:41:41;4.30;;;1.90;;
78838;SDS011;68405;47.190;27.558;2023-07-09T09:44:19;4.50;;;2.10;;
78838;SDS011;68405;47.190;27.558;2023-07-09T09:46:57;4.90;;;2.00;;
78838;SDS011;68405;47.190;27.558;2023-07-09T09:49:29;2.70;;;1.60;;
78838;SDS011;68405;47.190;27.558;2023-07-09T09:54:49;2.30;;;1.70;;
78838;SDS011;68405;47.190;27.558;2023-07-09T09:57:23;4.90;;;2.00;;
78838;SDS011;68405;47.190;27.558;2023-07-09T09:59:57;2.00;;;1.60;;
78838;SDS011;68405;47.190;27.558;2023-07-09T10:02:30;2.90;;;1.70;;
78838;SDS011;68405;47.190;27.558;2023-07-09T10:05:12;3.60;;;1.90;;
78838;SDS011;68405;47.190;27.558;2023-07-09T10:07:46;3.50;;;1.70;;
78838;SDS011;68405;47.190;27.558;2023-07-09T10:10:27;2.70;;;1.80;;
78838;SDS011;68405;47.190;27.558;2023-07-09T10:13:04;1.80;;;1.60;;
78838;SDS011;68405;47.190;27.558;2023-07-09T10:15:56;2.20;;;1.80;;
78838;SDS011;68405;47.190;27.558;2023-07-09T10:18:39;2.70;;;1.60;;
78838;SDS011;68405;47.190;27.558;2023-07-09T10:23:55;2.80;;;1.80;;
78838;SDS011;68405;47.190;27.558;2023-07-09T10:26:39;4.60;;;1.80;;
78838;SDS011;68405;47.190;27.558;2023-07-09T10:29:22;2.00;;;1.60;;
78838;SDS011;68405;47.190;27.558;2023-07-09T10:32:18;3.90;;;1.90;;
78838;SDS011;68405;47.190;27.558;2023-07-09T10:35:10;4.00;;;1.50;;
78838;SDS011;68405;47.190;27.558;2023-07-09T10:37:55;6.80;;;1.90;;
78838;SDS011;68405;47.190;27.558;2023-07-09T10:40:40;2.60;;;1.80;;
78838;SDS011;68405;47.190;27.558;2023-07-09T10:43:20;2.90;;;1.80;;
78838;SDS011;68405;47.190;27.558;2023-07-09T10:46:01;2.30;;;1.90;;
78838;SDS011;68405;47.190;27.558;2023-07-09T10:48:42;3.10;;;2.00;;
78838;SDS011;68405;47.190;27.558;2023-07-09T10:51:20;3.80;;;1.80;;
78838;SDS011;68405;47.190;27.558;2023-07-09T10:53:57;2.50;;;1.60;;
78838;SDS011;68405;47.190;27.558;2023-07-09T10:56:32;2.90;;;1.50;;
78838;SDS011;68405;47.190;27.558;2023-07-09T10:59:19;3.70;;;1.60;;
78838;SDS011;68405;47.190;27.558;2023-07-09T11:01:58;2.20;;;1.70;;
78838;SDS011;68405;47.190;27.558;2023-07-09T11:04:46;3.00;;;1.80;;
78838;SDS011;68405;47.190;27.558;2023-07-09T11:07:25;2.30;;;1.50;;
78838;SDS011;68405;47.190;27.558;2023-07-09T11:10:03;2.20;;;1.40;;
78838;SDS011;68405;47.190;27.558;2023-07-09T11:12:49;3.20;;;1.60;;
78838;SDS011;68405;47.190;27.558;2023-07-09T11:15:29;3.80;;;1.80;;
78838;SDS011;68405;47.190;27.558;2023-07-09T11:18:06;4.00;;;1.90;;
78838;SDS011;68405;47.190;27.558;2023-07-09T11:20:43;2.70;;;1.70;;
78838;SDS011;68405;47.190;27.558;2023-07-09T11:23:20;2.00;;;1.60;;
78838;SDS011;68405;47.190;27.558;2023-07-09T11:26:02;3.60;;;1.60;;
78838;SDS011;68405;47.190;27.558;2023-07-09T11:28:46;2.30;;;1.40;;
78838;SDS011;68405;47.190;27.558;2023-07-09T11:31:25;5.80;;;1.90;;
78838;SDS011;68405;47.190;27.558;2023-07-09T11:34:09;5.30;;;2.00;;
78838;SDS011;68405;47.190;27.558;2023-07-09T11:36:50;2.60;;;1.70;;
78838;SDS011;68405;47.190;27.558;2023-07-09T11:39:31;2.10;;;1.60;;
78838;SDS011;68405;47.190;27.558;2023-07-09T11:42:25;3.20;;;1.50;;
78838;SDS011;68405;47.190;27.558;2023-07-09T11:45:00;2.00;;;1.60;;
78838;SDS011;68405;47.190;27.558;2023-07-09T11:47:36;2.60;;;1.60;;
78838;SDS011;68405;47.190;27.558;2023-07-09T11:50:19;2.50;;;1.80;;
78838;SDS011;68405;47.190;27.558;2023-07-09T11:52:54;3.70;;;1.80;;
78838;SDS011;68405;47.190;27.558;2023-07-09T11:55:29;2.90;;;1.50;;
78838;SDS011;68405;47.190;27.558;2023-07-09T11:58:10;3.40;;;1.80;;
78838;SDS011;68405;47.190;27.558;2023-07-09T12:00:43;3.40;;;2.00;;
78838;SDS011;68405;47.190;27.558;2023-07-09T12:03:19;2.70;;;2.20;;
78838;SDS011;68405;47.190;27.558;2023-07-09T12:05:55;3.40;;;1.70;;
78838;SDS011;68405;47.190;27.558;2023-07-09T12:08:34;3.50;;;1.90;;
78838;SDS011;68405;47.190;27.558;2023-07-09T12:11:17;3.30;;;2.00;;
78838;SDS011;68405;47.190;27.558;2023-07-09T12:13:51;1.80;;;1.50;;
78838;SDS011;68405;47.190;27.558;2023-07-09T12:16:24;2.80;;;1.60;;
78838;SDS011;68405;47.190;27.558;2023-07-09T12:18:57;3.80;;;1.90;;
78838;SDS011;68405;47.190;27.558;2023-07-09T12:21:29;3.80;;;2.00;;
78838;SDS011;68405;47.190;27.558;2023-07-09T12:24:17;2.30;;;1.90;;
78838;SDS011;68405;47.190;27.558;2023-07-09T12:26:51;2.60;;;1.80;;
78838;SDS011;68405;47.190;27.558;2023-07-09T12:29:25;3.70;;;1.90;;
78838;SDS011;68405;47.190;27.558;2023-07-09T12:31:57;2.90;;;1.70;;
78838;SDS011;68405;47.190;27.558;2023-07-09T12:34:32;3.50;;;1.90;;
78838;SDS011;68405;47.190;27.558;2023-07-09T12:37:04;3.80;;;1.90;;
78838;SDS011;68405;47.190;27.558;2023-07-09T12:39:41;2.40;;;2.10;;
78838;SDS011;68405;47.190;27.558;2023-07-09T12:42:16;4.10;;;2.00;;
78838;SDS011;68405;47.190;27.558;2023-07-09T12:44:49;4.20;;;1.70;;
78838;SDS011;68405;47.190;27.558;2023-07-09T12:47:21;5.40;;;1.90;;
78838;SDS011;68405;47.190;27.558;2023-07-09T12:50:03;3.50;;;1.80;;
78838;SDS011;68405;47.190;27.558;2023-07-09T12:52:48;4.40;;;1.80;;
78838;SDS011;68405;47.190;27.558;2023-07-09T12:55:21;2.20;;;1.70;;
78838;SDS011;68405;47.190;27.558;2023-07-09T12:57:56;3.00;;;1.60;;
78838;SDS011;68405;47.190;27.558;2023-07-09T13:00:30;5.30;;;1.70;;
78838;SDS011;68405;47.190;27.558;2023-07-09T13:03:02;7.80;;;2.20;;
78838;SDS011;68405;47.190;27.558;2023-07-09T13:05:52;3.10;;;1.80;;
78838;SDS011;68405;47.190;27.558;2023-07-09T13:08:26;2.90;;;1.80;;
78838;SDS011;68405;47.190;27.558;2023-07-09T13:10:59;3.40;;;1.60;;
78838;SDS011;68405;47.190;27.558;2023-07-09T13:13:30;5.10;;;1.60;;
78838;SDS011;68405;47.190;27.558;2023-07-09T13:16:02;4.10;;;1.90;;
78838;SDS011;68405;47.190;27.558;2023-07-09T13:18:34;4.20;;;1.80;;
78838;SDS011;68405;47.190;27.558;2023-07-09T13:21:08;3.00;;;1.80;;
78838;SDS011;68405;47.190;27.558;2023-07-09T13:23:47;2.70;;;1.80;;
78838;SDS011;68405;47.190;27.558;2023-07-09T13:26:19;5.50;;;2.00;;
78838;SDS011;68405;47.190;27.558;2023-07-09T13:28:50;4.20;;;2.00;;
78838;SDS011;68405;47.190;27.558;2023-07-09T13:31:28;4.60;;;1.70;;
78838;SDS011;68405;47.190;27.558;2023-07-09T13:34:00;3.40;;;2.00;;
78838;SDS011;68405;47.190;27.558;2023-07-09T13:36:39;2.70;;;2.10;;
78838;SDS011;68405;47.190;27.558;2023-07-09T13:39:11;4.90;;;2.20;;
78838;SDS011;68405;47.190;27.558;2023-07-09T13:41:43;4.20;;;1.90;;
78838;SDS011;68405;47.190;27.558;2023-07-09T13:44:17;4.00;;;1.90;;
78838;SDS011;68405;47.190;27.558;2023-07-09T13:46:51;3.60;;;1.90;;
78838;SDS011;68405;47.190;27.558;2023-07-09T13:49:24;4.00;;;2.00;;
78838;SDS011;68405;47.190;27.558;2023-07-09T13:51:57;5.30;;;2.00;;
78838;SDS011;68405;47.190;27.558;2023-07-09T13:54:31;4.00;;;2.20;;
78838;SDS011;68405;47.190;27.558;2023-07-09T13:57:09;3.50;;;2.20;;
78838;SDS011;68405;47.190;27.558;2023-07-09T13:59:43;4.00;;;2.00;;
78838;SDS011;68405;47.190;27.558;2023-07-09T14:02:21;3.70;;;2.40;;
78838;SDS011;68405;47.190;27.558;2023-07-09T14:05:01;3.10;;;2.10;;
78838;SDS011;68405;47.190;27.558;2023-07-09T14:07:34;2.50;;;1.90;;
78838;SDS011;68405;47.190;27.558;2023-07-09T14:10:10;4.10;;;2.10;;
78838;SDS011;68405;47.190;27.558;2023-07-09T14:12:46;2.80;;;1.70;;
78838;SDS011;68405;47.190;27.558;2023-07-09T14:15:19;4.40;;;2.00;;
78838;SDS011;68405;47.190;27.558;2023-07-09T14:17:51;3.30;;;2.10;;
78838;SDS011;68405;47.190;27.558;2023-07-09T14:20:24;4.10;;;1.90;;
78838;SDS011;68405;47.190;27.558;2023-07-09T14:22:56;4.50;;;2.50;;
78838;SDS011;68405;47.190;27.558;2023-07-09T14:25:29;3.00;;;2.10;;
78838;SDS011;68405;47.190;27.558;2023-07-09T14:28:00;6.50;;;1.90;;
78838;SDS011;68405;47.190;27.558;2023-07-09T14:30:37;2.50;;;1.90;;
78838;SDS011;68405;47.190;27.558;2023-07-09T14:33:14;2.50;;;1.70;;
78838;SDS011;68405;47.190;27.558;2023-07-09T14:35:47;2.80;;;1.90;;
78838;SDS011;68405;47.190;27.558;2023-07-09T14:38:20;3.40;;;1.90;;
78838;SDS011;68405;47.190;27.558;2023-07-09T14:40:53;3.50;;;2.30;;
78838;SDS011;68405;47.190;27.558;2023-07-09T14:43:28;3.10;;;2.20;;
78838;SDS011;68405;47.190;27.558;2023-07-09T14:46:00;4.50;;;2.00;;
78838;SDS011;68405;47.190;27.558;2023-07-09T14:48:32;2.40;;;2.10;;
78838;SDS011;68405;47.190;27.558;2023-07-09T14:51:07;3.70;;;1.90;;
78838;SDS011;68405;47.190;27.558;2023-07-09T14:53:46;4.60;;;2.40;;
78838;SDS011;68405;47.190;27.558;2023-07-09T14:56:18;3.10;;;1.80;;
78838;SDS011;68405;47.190;27.558;2023-07-09T14:58:50;7.20;;;2.40;;
78838;SDS011;68405;47.190;27.558;2023-07-09T15:01:22;5.00;;;2.20;;
78838;SDS011;68405;47.190;27.558;2023-07-09T15:03:54;3.10;;;2.00;;
78838;SDS011;68405;47.190;27.558;2023-07-09T15:06:26;4.10;;;2.00;;
78838;SDS011;68405;47.190;27.558;2023-07-09T15:08:58;3.00;;;1.90;;
78838;SDS011;68405;47.190;27.558;2023-07-09T15:11:30;3.80;;;2.20;;
78838;SDS011;68405;47.190;27.558;2023-07-09T15:14:01;3.30;;;2.10;;
78838;SDS011;68405;47.190;27.558;2023-07-09T15:16:34;3.60;;;2.10;;
78838;SDS011;68405;47.190;27.558;2023-07-09T15:19:09;4.00;;;2.20;;
78838;SDS011;68405;47.190;27.558;2023-07-09T15:21:43;4.10;;;1.80;;
78838;SDS011;68405;47.190;27.558;2023-07-09T15:24:17;2.20;;;1.80;;
78838;SDS011;68405;47.190;27.558;2023-07-09T15:26:55;3.70;;;2.30;;
78838;SDS011;68405;47.190;27.558;2023-07-09T15:29:28;4.10;;;2.20;;
78838;SDS011;68405;47.190;27.558;2023-07-09T15:32:00;3.50;;;2.20;;
78838;SDS011;68405;47.190;27.558;2023-07-09T15:34:32;4.70;;;2.50;;
78838;SDS011;68405;47.190;27.558;2023-07-09T15:37:08;5.00;;;2.00;;
78838;SDS011;68405;47.190;27.558;2023-07-09T15:39:43;2.70;;;1.90;;
78838;SDS011;68405;47.190;27.558;2023-07-09T15:42:15;3.00;;;1.80;;
78838;SDS011;68405;47.190;27.558;2023-07-09T15:44:46;3.10;;;2.10;;